Getzville 2E NY

43° 01' 25"N, 78° 44' 55"W, Elevation 589 ft.
Eastern Time

Hourly observations for the last 72 hours

Date Time Temperature (°F) Humi-
dity

(%)
Wind
(mph)
Pressure Rain (in) Sun
(W/m2)
ET
(in)
Air Dew 6 Hour 1 Hr 3 Hr 6 Hr Day
Alt
(in)
Sea
Level

(mb)
Max Min
28 16:00 79.7 60.5 52 E 6 G 8 30.02 1016.7 0.00 828 0.148
28 15:00 79.3 64.2 60 E 0 G 8 30.03 1017.0 0.00 976 0.123
28 14:00 78.7 61.7 78.7 64.6 56 E 2 G 8 30.03 1017.0 0.00 1090 0.096
28 13:00 76.8 63.7 64 ENE 3 G 10 30.03 1017.0 0.00 1090 0.069
28 12:00 74.4 64.0 70 E 4 G 10 30.04 1017.3 0.00 1002 0.045
28 11:00 73.5 64.7 74 E 3 G 7 30.06 1017.8 0.00 900 0.026
28 10:00 69.4 62.6 79 E 5 G 9 30.06 1018.0 0.00 679 0.014
28 09:00 68.1 62.4 82 ESE 6 G 11 30.06 1017.9 0.00 380 0.006
28 08:00 64.6 61.9 64.9 61.7 91 E 2 G 7 30.05 1017.7 0.00 229 0.001
28 07:00 62.1 60.1 93 Calm 30.04 1017.3 0.00 56 0.000
28 06:00 61.9 59.6 92 Calm 30.02 1016.6 0.00 0 0.000
28 05:00 62.9 60.5 92 Calm 30.01 1016.3 0.00 0 0.000
28 04:00 64.0 61.3 91 ESE 1 G 4 30.00 1015.9 0.00 0 0.000
28 03:00 64.2 61.5 91 ENE 0 G 3 30.00 1015.8 0.00 0 0.000
28 02:00 64.9 61.3 74.0 64.9 88 Calm 29.99 1015.5 0.01 0 0.092
28 01:00 67.1 63.1 87 ENE 0 G 1 29.99 1015.5 0.01 0 0.092
28 00:00 67.9 64.2 88 Calm 29.98 1015.1 0.01 0 0.092
27 23:00 68.5 64.5 87 Calm 29.97 1014.8 0.01 0 0.092
27 22:00 69.1 64.4 85 Calm 29.97 1014.8 0.01 0 0.091
27 21:00 71.3 65.5 82 Calm 29.94 1014.1 0.01 0 0.091
27 20:00 74.0 66.7 77.3 73.3 78 E 2 G 7 29.93 1013.4 0.01 0.01 33 0.090
27 19:00 76.4 68.3 76 ENE 0 G 6 29.93 1013.6 0.01 102 0.086
27 18:00 77.1 68.2 74 NW 3 G 8 29.93 1013.4 0.01 134 0.080
27 17:00 75.7 68.4 78 WNW 6 G 12 29.92 1013.3 0.01 0.01 230 0.074
27 16:00 76.1 69.5 80 W 3 G 10 29.92 1013.2 0.01 0.01 225 0.067
27 15:00 73.8 67.2 80 WSW 0 G 4 29.92 1013.1 0.00 392 0.059
27 14:00 73.7 69.6 77.7 67.9 87 W 1 G 6 29.91 1012.9 0.00 413 0.050
27 13:00 70.5 66.8 88 W 0 G 2 29.92 1013.4 0.00 292 0.042
27 12:00 76.5 66.8 72 WNW 2 G 8 29.97 1015.0 0.00 77 0.037
27 11:00 76.0 66.3 72 NNE 2 G 5 29.94 1014.0 0.00 995 0.024
27 10:00 76.2 69.2 79 W 6 G 13 29.95 1014.2 0.00 290 0.015
27 09:00 73.1 67.3 82 SSW 2 G 5 29.92 1013.4 0.00 487 0.007
27 08:00 67.9 64.9 67.9 62.7 90 SSW 1 G 4 29.92 1013.4 0.00 234 0.002
27 07:00 64.2 62.1 93 Calm 29.93 1013.7 0.00 65 0.000
27 06:00 63.0 60.6 92 Calm 29.93 1013.6 0.00 0 0.000
27 05:00 63.0 60.6 92 Calm 29.93 1013.6 0.00 0 0.000
27 04:00 63.1 60.4 91 Calm 29.95 1014.2 0.00 0 0.000
27 03:00 63.9 60.9 90 Calm 29.94 1013.9 0.00 0 0.000
27 02:00 65.7 63.0 76.2 65.7 91 Calm 29.93 1013.5 0.00 0 0.149
27 01:00 67.6 64.9 91 Calm 29.93 1013.7 0.00 0 0.149
27 00:00 69.4 66.3 90 Calm 29.93 1013.5 0.00 0 0.149
26 23:00 70.8 67.1 88 Calm 29.92 1013.3 0.00 0 0.149
26 22:00 72.2 67.8 86 Calm 29.91 1012.8 0.00 0 0.148
26 21:00 74.3 69.2 84 SW 0 G 2 29.89 1012.1 0.00 0 0.148
26 20:00 76.2 69.9 84.5 76.2 81 W 1 G 3 29.89 1012.1 0.00 46 0.147
26 19:00 79.3 69.5 72 NW 1 G 3 29.89 1012.1 0.00 163 0.143
26 18:00 82.9 71.7 69 SSW 1 G 5 29.89 1012.2 0.00 304 0.136
26 17:00 82.5 65.8 57 WNW 0 G 5 29.90 1012.4 0.00 197 0.129
26 16:00 80.6 70.7 72 W 1 G 8 29.90 1012.5 0.00 875 0.116
26 15:00 78.7 69.3 73 W 0 G 7 29.91 1012.9 0.00 315 0.110
26 14:00 83.6 69.7 86.5 69.2 63 WSW 0 G 4 29.89 1012.4 0.00 1090 0.097
26 13:00 85.8 71.3 62 W 2 G 8 29.90 1012.7 0.00 1179 0.073
26 12:00 84.2 69.8 62 NW 0 G 4 29.90 1012.7 0.00 1016 0.047
26 11:00 80.9 69.8 69 W 1 G 3 29.91 1013.0 0.00 1035 0.029
26 10:00 76.7 69.7 79 NW 1 G 4 29.91 1012.9 0.00 707 0.016
26 09:00 73.6 69.2 86 W 2 G 5 29.92 1013.1 0.00 508 0.008
26 08:00 69.2 67.4 69.2 63.6 94 Calm 29.91 1013.0 0.00 258 0.002
26 07:00 64.4 62.3 93 Calm 29.91 1012.7 0.00 76 0.000
26 06:00 64.0 61.9 93 Calm 29.90 1012.4 0.00 0 0.000
26 05:00 64.2 61.8 92 Calm 29.89 1012.1 0.00 0 0.000
26 04:00 64.4 62.0 92 Calm 29.88 1011.8 0.00 0 0.000
26 03:00 64.9 62.5 92 Calm 29.88 1012.0 0.00 0 0.000
26 02:00 65.9 63.2 77.6 65.9 91 Calm 29.89 1012.1 0.00 0 0.198
26 01:00 67.7 64.7 90 Calm 29.88 1011.9 0.00 0 0.198
26 00:00 70.0 66.6 89 Calm 29.88 1011.8 0.00 0 0.198
25 23:00 71.5 67.4 87 WNW 0 G 2 29.86 1011.4 0.00 0 0.198
25 22:00 73.0 67.9 84 SSW 0 G 1 29.85 1010.8 0.00 0 0.197
25 21:00 74.9 68.3 80 SSW 1 G 4 29.83 1010.2 0.00 0 0.197
25 20:00 77.6 67.9 85.6 77.6 72 W 1 G 6 29.82 1009.9 0.00 39 0.195
25 19:00 80.7 67.0 63 W 3 G 10 29.82 1009.8 0.00 225 0.188
25 18:00 82.0 69.1 65 W 3 G 11 29.82 1009.9 0.00 346 0.181
25 17:00 82.8 70.3 66 WNW 5 G 11 29.82 1009.9 0.00 202 0.173

Data generated by WxSolution Version 1.9.1.5, Build 2018.05.20.